createdAt,value
2019-04-16T00:02:48.476Z,54.10
2019-04-16T00:05:58.915Z,56.60
2019-04-16T00:08:38.782Z,73.10
2019-04-16T00:11:16.304Z,55.00
2019-04-16T00:14:08.413Z,57.80
2019-04-16T00:16:41.336Z,59.80
2019-04-16T00:19:10.835Z,58.80
2019-04-16T00:21:57.247Z,61.50
2019-04-16T00:24:33.050Z,63.10
2019-04-16T00:27:03.425Z,60.80
2019-04-16T00:29:33.852Z,62.70
2019-04-16T00:32:11.835Z,65.70
2019-04-16T00:34:44.464Z,66.30
2019-04-16T00:37:14.326Z,81.90
2019-04-16T00:39:44.720Z,83.70
2019-04-16T00:42:15.174Z,82.20
2019-04-16T00:44:45.575Z,81.80
2019-04-16T00:47:15.957Z,82.60
2019-04-16T00:49:46.306Z,85.80
2019-04-16T00:52:16.689Z,83.90
2019-04-16T00:54:47.054Z,81.90
2019-04-16T00:57:18.171Z,81.10
2019-04-16T00:59:49.064Z,81.80
2019-04-16T01:02:19.442Z,85.30
2019-04-16T01:04:49.860Z,89.90
2019-04-16T01:07:20.229Z,89.60
2019-04-16T01:09:50.626Z,90.00
2019-04-16T01:12:21.038Z,89.00
2019-04-16T01:14:51.398Z,90.30
2019-04-16T01:17:21.778Z,89.20
2019-04-16T01:19:52.143Z,90.00
2019-04-16T01:22:22.546Z,91.50
2019-04-16T01:24:52.962Z,93.60
2019-04-16T01:27:32.004Z,95.40
2019-04-16T01:30:05.082Z,98.50
2019-04-16T01:32:46.457Z,96.50
2019-04-16T01:35:33.669Z,97.20
2019-04-16T01:38:28.051Z,99.60
2019-04-16T01:41:00.860Z,99.90
2019-04-16T01:43:31.237Z,99.90
2019-04-16T01:46:02.447Z,99.90
2019-04-16T01:48:33.312Z,99.90
2019-04-16T01:51:03.663Z,99.90
2019-04-16T01:53:34.062Z,99.90
2019-04-16T01:56:04.418Z,99.90
2019-04-16T01:58:34.837Z,99.90
2019-04-16T02:01:07.921Z,99.90
2019-04-16T02:03:37.382Z,99.90
2019-04-16T02:06:07.838Z,99.90
2019-04-16T02:08:38.206Z,99.90
2019-04-16T02:11:10.596Z,99.90
2019-04-16T02:13:45.795Z,99.90
2019-04-16T02:16:12.802Z,99.90
2019-04-16T02:18:43.198Z,99.90
2019-04-16T02:21:13.597Z,99.90
2019-04-16T02:23:45.361Z,99.90
2019-04-16T02:26:16.029Z,99.90
2019-04-16T02:28:46.386Z,99.90
2019-04-16T02:31:16.787Z,99.90
2019-04-16T02:33:47.165Z,99.90
2019-04-16T02:36:17.642Z,99.90
2019-04-16T02:38:53.374Z,99.90
2019-04-16T02:41:23.222Z,99.90
2019-04-16T02:43:52.115Z,99.90
2019-04-16T02:46:22.625Z,99.90
2019-04-16T02:48:52.989Z,99.90
2019-04-16T02:51:57.700Z,99.90
2019-04-16T02:54:34.402Z,99.90
2019-04-16T02:57:26.764Z,99.90
2019-04-16T02:59:57.153Z,99.90
2019-04-16T03:02:43.869Z,99.90
2019-04-16T03:05:33.198Z,99.90
2019-04-16T03:08:04.614Z,99.90
2019-04-16T03:10:35.739Z,99.90
2019-04-16T03:13:06.110Z,99.90
2019-04-16T03:15:55.443Z,99.90
2019-04-16T03:18:31.477Z,99.90
2019-04-16T03:21:01.917Z,99.90
2019-04-16T03:23:36.663Z,99.90
2019-04-16T03:26:04.421Z,99.90
2019-04-16T03:28:34.777Z,99.90
2019-04-16T03:31:08.889Z,99.90
2019-04-16T03:33:37.244Z,99.90
2019-04-16T03:36:07.618Z,99.90
2019-04-16T03:38:41.891Z,99.90
2019-04-16T03:41:10.122Z,99.90
2019-04-16T03:43:40.477Z,99.90
2019-04-16T03:46:12.725Z,99.90
2019-04-16T03:48:42.938Z,99.90
2019-04-16T03:51:13.321Z,99.90
2019-04-16T03:53:46.508Z,99.90
2019-04-16T03:56:15.813Z,99.90
2019-04-16T03:58:46.182Z,99.90
2019-04-16T04:01:16.586Z,99.90
2019-04-16T04:03:46.958Z,99.90
2019-04-16T04:06:17.334Z,99.90
2019-04-16T04:08:48.963Z,99.90
2019-04-16T04:11:19.737Z,99.90
2019-04-16T04:13:50.951Z,99.90
2019-04-16T04:16:21.582Z,99.90
2019-04-16T04:18:51.957Z,99.90
2019-04-16T04:21:22.732Z,1.00
2019-04-16T04:23:53.184Z,1.00
2019-04-16T04:26:23.566Z,1.00
2019-04-16T04:28:54.056Z,99.90
2019-04-16T04:31:24.438Z,99.90
2019-04-16T04:33:54.879Z,99.90
2019-04-16T04:36:26.985Z,99.90
2019-04-16T04:38:57.419Z,99.90
2019-04-16T04:41:27.821Z,99.90
2019-04-16T04:44:03.850Z,99.90
2019-04-16T04:46:30.330Z,99.90
2019-04-16T04:49:00.710Z,99.90
2019-04-16T04:51:31.094Z,99.90
2019-04-16T04:54:01.461Z,1.00
2019-04-16T04:56:31.918Z,99.90
2019-04-16T04:59:02.547Z,99.90
2019-04-16T05:01:34.399Z,99.90
2019-04-16T05:04:26.742Z,99.90
2019-04-16T05:06:59.845Z,1.00
2019-04-16T05:09:35.588Z,1.00
2019-04-16T05:12:02.288Z,1.00
2019-04-16T05:14:32.753Z,1.00
2019-04-16T05:17:03.640Z,1.00
2019-04-16T05:19:35.309Z,1.00
2019-04-16T05:22:05.752Z,1.00
2019-04-16T05:24:37.661Z,1.00
2019-04-16T05:27:09.289Z,1.00
2019-04-16T05:29:39.932Z,99.90
2019-04-16T05:32:10.326Z,99.90
2019-04-16T05:34:40.706Z,99.90
2019-04-16T05:37:11.082Z,99.90
2019-04-16T05:39:41.470Z,99.90
2019-04-16T05:42:11.874Z,99.90
2019-04-16T05:44:42.342Z,99.90
2019-04-16T05:47:16.795Z,99.90
2019-04-16T05:49:44.919Z,99.90
2019-04-16T05:52:15.260Z,99.90
2019-04-16T05:55:04.594Z,99.90
2019-04-16T05:57:36.934Z,99.90
2019-04-16T06:00:12.470Z,99.90
2019-04-16T06:02:43.373Z,99.90
2019-04-16T06:05:13.824Z,99.90
2019-04-16T06:07:44.188Z,99.90
2019-04-16T06:10:17.813Z,99.90
2019-04-16T06:13:09.441Z,99.90
2019-04-16T06:15:56.915Z,99.90
2019-04-16T06:18:49.474Z,99.90
2019-04-16T06:21:37.938Z,99.90
2019-04-16T06:24:17.038Z,99.90
2019-04-16T06:27:15.537Z,99.90
2019-04-16T06:30:03.747Z,99.90
2019-04-16T06:32:39.759Z,99.90
2019-04-16T06:35:27.750Z,99.90
2019-04-16T06:38:04.785Z,99.90
2019-04-16T06:40:41.349Z,99.90
2019-04-16T06:43:25.189Z,99.90
2019-04-16T06:46:05.518Z,99.90
2019-04-16T06:48:42.509Z,99.90
2019-04-16T06:51:31.755Z,99.90
2019-04-16T06:54:31.883Z,99.90
2019-04-16T06:57:12.849Z,99.90
2019-04-16T07:00:02.336Z,99.90
2019-04-16T07:03:02.092Z,99.90
2019-04-16T07:05:39.760Z,99.90
2019-04-16T07:08:37.523Z,99.90
2019-04-16T07:11:01.921Z,99.90
2019-04-16T07:13:32.440Z,99.90
2019-04-16T07:16:02.809Z,99.90
2019-04-16T07:18:35.607Z,99.90
2019-04-16T07:21:05.469Z,99.90
2019-04-16T07:23:35.985Z,99.90
2019-04-16T07:26:06.465Z,99.90
2019-04-16T07:28:42.862Z,99.90
2019-04-16T07:31:44.793Z,99.90
2019-04-16T07:34:36.146Z,99.90
2019-04-16T07:37:32.871Z,99.90
2019-04-16T07:40:25.607Z,99.90
2019-04-16T07:43:23.277Z,99.90
2019-04-16T07:46:12.609Z,99.90
2019-04-16T07:48:56.295Z,99.90
2019-04-16T07:51:54.898Z,99.90
2019-04-16T07:54:45.893Z,99.90
2019-04-16T07:57:16.281Z,99.90
2019-04-16T07:59:46.718Z,99.90
2019-04-16T08:02:17.686Z,99.90
2019-04-16T08:04:49.246Z,99.90
2019-04-16T08:07:20.484Z,99.90
2019-04-16T08:09:51.704Z,99.90
2019-04-16T08:12:30.003Z,99.90
2019-04-16T08:14:54.167Z,99.90
2019-04-16T08:17:24.553Z,99.90
2019-04-16T08:19:55.594Z,99.90
2019-04-16T08:22:26.593Z,99.90
2019-04-16T08:25:03.255Z,99.90
2019-04-16T08:27:31.892Z,99.90
2019-04-16T08:30:04.047Z,99.90
2019-04-16T08:32:34.370Z,99.90
2019-04-16T08:35:05.437Z,99.90
2019-04-16T08:37:48.371Z,99.90
2019-04-16T08:40:09.095Z,99.90
2019-04-16T08:42:44.854Z,99.90
2019-04-16T08:45:13.020Z,99.90
2019-04-16T08:47:44.973Z,99.90
2019-04-16T08:50:15.541Z,99.90
2019-04-16T08:52:45.893Z,99.90
2019-04-16T08:55:16.307Z,99.90
2019-04-16T08:57:47.018Z,99.90
2019-04-16T09:00:17.826Z,99.90
2019-04-16T09:02:48.189Z,99.90
2019-04-16T09:05:18.582Z,99.90
2019-04-16T09:07:50.935Z,99.90
2019-04-16T09:10:40.104Z,99.90
2019-04-16T09:13:15.245Z,99.90
2019-04-16T09:15:44.243Z,99.90
2019-04-16T09:18:32.141Z,99.90
2019-04-16T09:21:02.515Z,99.90
2019-04-16T09:23:32.902Z,99.90
2019-04-16T09:26:23.664Z,99.90
2019-04-16T09:29:13.471Z,99.90
2019-04-16T09:31:59.717Z,99.90
2019-04-16T09:35:09.343Z,99.90
2019-04-16T09:37:44.469Z,99.90
2019-04-16T09:40:32.013Z,99.90
2019-04-16T09:43:15.993Z,99.90
2019-04-16T09:45:37.172Z,99.90
2019-04-16T09:48:07.633Z,99.90
2019-04-16T09:50:42.981Z,99.90
2019-04-16T09:53:10.080Z,99.90
2019-04-16T09:55:40.450Z,99.90
2019-04-16T09:58:17.518Z,99.90
2019-04-16T10:00:53.101Z,99.90
2019-04-16T10:03:42.459Z,99.90
2019-04-16T10:06:12.818Z,99.90
2019-04-16T10:08:45.096Z,99.90
2019-04-16T10:11:18.430Z,99.90
2019-04-16T10:13:47.359Z,99.90
2019-04-16T10:16:19.630Z,99.90
2019-04-16T10:18:50.165Z,99.90
2019-04-16T10:21:20.541Z,99.90
2019-04-16T10:24:12.983Z,99.90
2019-04-16T10:26:42.160Z,99.90
2019-04-16T10:29:15.205Z,99.90
2019-04-16T10:31:45.964Z,99.90
2019-04-16T10:34:16.365Z,99.90
2019-04-16T10:36:46.774Z,99.90
2019-04-16T10:39:25.515Z,99.90
2019-04-16T10:42:01.567Z,99.90
2019-04-16T10:44:51.349Z,99.90
2019-04-16T10:47:29.754Z,99.90
2019-04-16T10:50:12.205Z,99.90
2019-04-16T10:53:04.471Z,99.90
2019-04-16T10:55:52.763Z,99.90
2019-04-16T10:58:48.609Z,99.90
2019-04-16T11:01:37.932Z,99.90
2019-04-16T11:04:23.273Z,99.90
2019-04-16T11:06:54.382Z,99.90
2019-04-16T11:09:24.856Z,99.90
2019-04-16T11:11:55.334Z,99.90
2019-04-16T11:14:25.885Z,99.90
2019-04-16T11:16:56.407Z,99.90
2019-04-16T11:19:26.789Z,99.90
2019-04-16T11:21:59.934Z,99.90
2019-04-16T11:24:29.258Z,99.90
2019-04-16T11:26:59.690Z,99.90
2019-04-16T11:29:30.116Z,99.90
2019-04-16T11:32:00.724Z,99.90
2019-04-16T11:34:31.201Z,99.90
2019-04-16T11:37:07.344Z,99.90
2019-04-16T11:39:33.646Z,99.90
2019-04-16T11:42:04.317Z,99.90
2019-04-16T11:44:34.694Z,99.90
2019-04-16T11:47:06.938Z,99.90
2019-04-16T11:49:37.392Z,99.90
2019-04-16T11:52:07.844Z,99.90
2019-04-16T11:54:38.281Z,99.90
2019-04-16T11:57:08.725Z,99.90
2019-04-16T11:59:39.086Z,99.90
2019-04-16T12:02:23.278Z,99.90
2019-04-16T12:05:10.921Z,99.90
2019-04-16T12:07:59.293Z,99.90
2019-04-16T12:10:59.180Z,99.90
2019-04-16T12:13:40.143Z,99.90
2019-04-16T12:16:28.470Z,99.90
2019-04-16T12:19:17.922Z,99.90
2019-04-16T12:21:59.577Z,99.90
2019-04-16T12:24:47.791Z,99.90
2019-04-16T12:27:36.092Z,99.90
2019-04-16T12:30:25.962Z,99.90
2019-04-16T12:33:21.213Z,99.90
2019-04-16T12:36:16.037Z,99.90
2019-04-16T12:38:57.309Z,99.90
2019-04-16T12:41:42.250Z,99.90
2019-04-16T12:44:47.007Z,99.90
2019-04-16T12:47:39.422Z,99.90
2019-04-16T12:50:21.795Z,99.90
2019-04-16T12:53:02.687Z,99.90
2019-04-16T12:55:47.359Z,99.90
2019-04-16T12:58:35.326Z,99.90
2019-04-16T13:01:19.552Z,99.90
2019-04-16T13:04:05.872Z,99.90
2019-04-16T13:06:40.529Z,99.90
2019-04-16T13:09:32.243Z,99.90
2019-04-16T13:12:09.418Z,99.90
2019-04-16T13:15:00.777Z,99.90
2019-04-16T13:17:54.483Z,99.90
2019-04-16T13:20:46.857Z,99.90
2019-04-16T13:23:39.210Z,99.90
2019-04-16T13:26:27.098Z,99.90
2019-04-16T13:28:57.938Z,99.90
2019-04-16T13:31:28.329Z,99.90
2019-04-16T13:33:58.761Z,99.90
2019-04-16T13:36:29.186Z,99.90
2019-04-16T13:39:08.070Z,99.90
2019-04-16T13:41:39.235Z,99.90
2019-04-16T13:44:10.628Z,99.90
2019-04-16T13:46:41.098Z,99.90
2019-04-16T13:49:25.660Z,99.90
2019-04-16T13:51:57.568Z,99.90
2019-04-16T13:54:52.951Z,99.90
2019-04-16T13:57:23.740Z,99.90
2019-04-16T13:59:55.078Z,99.90
2019-04-16T14:02:47.917Z,99.90
2019-04-16T14:05:19.334Z,99.90
2019-04-16T14:07:49.715Z,99.90
2019-04-16T14:10:20.214Z,99.90
2019-04-16T14:12:50.581Z,99.90
2019-04-16T14:15:31.887Z,99.90
2019-04-16T14:17:59.078Z,99.90
2019-04-16T14:20:26.969Z,99.90
2019-04-16T14:22:57.327Z,99.90
2019-04-16T14:25:27.729Z,99.90
2019-04-16T14:28:02.103Z,99.90
2019-04-16T14:30:35.907Z,99.90
2019-04-16T14:33:07.544Z,99.90
2019-04-16T14:35:40.373Z,99.90
2019-04-16T14:38:12.137Z,99.90
2019-04-16T14:40:43.103Z,99.90
2019-04-16T14:43:15.197Z,99.90
2019-04-16T14:45:58.046Z,99.90
2019-04-16T14:48:23.101Z,99.90
2019-04-16T14:50:53.527Z,99.90
2019-04-16T14:53:39.384Z,99.90
2019-04-16T14:56:17.542Z,99.90
2019-04-16T14:59:10.967Z,99.90
2019-04-16T15:02:15.614Z,99.90
2019-04-16T15:05:09.936Z,99.90
2019-04-16T15:07:57.847Z,99.90
2019-04-16T15:10:53.229Z,99.90
2019-04-16T15:13:31.278Z,99.90
2019-04-16T15:16:31.521Z,99.90
2019-04-16T15:19:26.192Z,99.90
2019-04-16T15:22:14.872Z,99.90
2019-04-16T15:24:58.284Z,99.90
2019-04-16T15:27:39.905Z,99.90
2019-04-16T15:30:29.398Z,99.90
2019-04-16T15:33:18.773Z,99.90
2019-04-16T15:36:10.081Z,99.90
2019-04-16T15:39:02.652Z,99.90
2019-04-16T15:41:44.693Z,99.90
2019-04-16T15:44:25.568Z,99.90
2019-04-16T15:47:13.345Z,99.90
2019-04-16T15:49:59.065Z,99.90
2019-04-16T15:52:57.298Z,99.90
2019-04-16T15:55:45.222Z,99.90
2019-04-16T15:58:23.849Z,99.90
2019-04-16T16:01:12.030Z,99.90
2019-04-16T16:04:07.188Z,99.90
2019-04-16T16:06:43.938Z,99.90
2019-04-16T16:09:19.123Z,99.90
2019-04-16T16:12:11.458Z,99.90
2019-04-16T16:14:41.858Z,99.90
2019-04-16T16:17:12.232Z,99.90
2019-04-16T16:19:42.700Z,99.90
2019-04-16T16:22:13.103Z,99.90
2019-04-16T16:24:43.544Z,99.90
2019-04-16T16:27:13.958Z,99.90
2019-04-16T16:29:44.377Z,99.90
2019-04-16T16:32:14.787Z,99.90
2019-04-16T16:34:45.247Z,99.90
2019-04-16T16:37:15.651Z,99.90
2019-04-16T16:39:46.070Z,99.90
2019-04-16T16:42:16.475Z,99.90
2019-04-16T16:44:46.915Z,99.90
2019-04-16T16:47:48.574Z,99.90
2019-04-16T16:50:19.119Z,99.90
2019-04-16T16:53:06.840Z,99.90
2019-04-16T16:55:49.258Z,99.90
2019-04-16T16:58:41.418Z,99.90
2019-04-16T17:01:36.598Z,99.90
2019-04-16T17:04:11.125Z,99.90
2019-04-16T17:06:41.598Z,99.90
2019-04-16T17:09:22.781Z,99.90
2019-04-16T17:11:55.806Z,99.90
2019-04-16T17:14:25.348Z,99.90
2019-04-16T17:17:11.235Z,99.90
2019-04-16T17:19:28.039Z,99.90
2019-04-16T17:22:01.298Z,99.90
2019-04-16T17:24:31.713Z,99.90
2019-04-16T17:27:02.155Z,99.90
2019-04-16T17:29:32.628Z,99.90
2019-04-16T17:32:03.186Z,99.90
2019-04-16T17:34:38.613Z,99.90
2019-04-16T17:37:05.755Z,99.90
2019-04-16T17:39:46.406Z,99.90
2019-04-16T17:42:19.197Z,99.90
2019-04-16T17:45:07.731Z,99.90
2019-04-16T17:47:57.280Z,99.90
2019-04-16T17:50:43.523Z,99.90
2019-04-16T17:53:31.758Z,99.90
2019-04-16T17:56:24.082Z,99.90
2019-04-16T17:59:07.349Z,99.90
2019-04-16T18:01:59.515Z,99.90
2019-04-16T18:04:58.015Z,99.90
2019-04-16T18:07:47.742Z,99.90
2019-04-16T18:10:43.103Z,99.90
2019-04-16T18:13:17.978Z,99.90
2019-04-16T18:15:56.248Z,99.90
2019-04-16T18:18:36.725Z,99.90
2019-04-16T18:21:31.487Z,99.90
2019-04-16T18:24:26.877Z,99.90
2019-04-16T18:27:28.518Z,99.90
2019-04-16T18:30:16.547Z,99.90
2019-04-16T18:33:06.944Z,99.90
2019-04-16T18:36:01.336Z,99.90
2019-04-16T18:38:45.041Z,99.90
2019-04-16T18:41:23.291Z,99.90
2019-04-16T18:44:15.728Z,99.90
2019-04-16T18:47:10.883Z,99.90
2019-04-16T18:49:40.758Z,99.90
2019-04-16T18:52:11.133Z,99.90
2019-04-16T18:54:41.555Z,99.90
2019-04-16T18:57:11.970Z,99.90
2019-04-16T18:59:42.407Z,99.90
2019-04-16T19:02:12.798Z,99.90
2019-04-16T19:04:43.219Z,99.90
2019-04-16T19:07:13.630Z,99.90
2019-04-16T19:09:44.083Z,99.90
2019-04-16T19:12:14.493Z,99.90
2019-04-16T19:14:44.947Z,99.90
2019-04-16T19:17:16.808Z,99.90
2019-04-16T19:19:48.656Z,1.00
2019-04-16T19:22:19.281Z,1.00
2019-04-16T19:24:49.734Z,1.00
2019-04-16T19:27:20.149Z,1.00
2019-04-16T19:29:50.589Z,1.00
2019-04-16T19:32:21.009Z,1.00
2019-04-16T19:34:51.494Z,1.00
2019-04-16T19:37:21.902Z,1.00
2019-04-16T19:39:52.337Z,1.00
2019-04-16T19:42:25.726Z,1.00
2019-04-16T19:44:55.181Z,8.10
2019-04-16T19:47:26.612Z,1.00
2019-04-16T19:49:57.774Z,1.00
2019-04-16T19:52:28.171Z,1.00
2019-04-16T19:54:58.607Z,55.80
2019-04-16T19:57:29.337Z,99.90
2019-04-16T19:59:59.819Z,99.90
2019-04-16T20:02:33.326Z,99.90
2019-04-16T20:05:02.573Z,99.90
2019-04-16T20:07:33.653Z,99.90
2019-04-16T20:10:07.047Z,99.90
2019-04-16T20:12:37.465Z,26.00
2019-04-16T20:15:09.591Z,1.00
2019-04-16T20:17:40.226Z,1.00
2019-04-16T20:20:10.754Z,1.00
2019-04-16T20:22:41.200Z,1.00
2019-04-16T20:25:11.717Z,1.00
2019-04-16T20:27:42.167Z,1.00
2019-04-16T20:30:14.361Z,1.00
2019-04-16T20:32:44.838Z,1.00
2019-04-16T20:35:18.858Z,1.00
2019-04-16T20:37:50.378Z,1.00
2019-04-16T20:40:20.782Z,1.00
2019-04-16T20:42:52.242Z,1.00
2019-04-16T20:45:23.873Z,1.00
2019-04-16T20:47:54.988Z,1.00
2019-04-16T20:50:25.982Z,1.00
2019-04-16T20:52:56.500Z,1.00
2019-04-16T20:55:26.936Z,1.00
2019-04-16T20:58:00.412Z,1.00
2019-04-16T21:00:34.800Z,1.00
2019-04-16T21:03:21.368Z,1.00
2019-04-16T21:05:57.076Z,1.00
2019-04-16T21:08:17.110Z,1.00
2019-04-16T21:10:46.458Z,1.00
2019-04-16T21:13:16.902Z,1.00
2019-04-16T21:15:47.361Z,1.00
2019-04-16T21:18:17.897Z,1.00
2019-04-16T21:20:50.905Z,1.00
2019-04-16T21:23:20.444Z,1.00
2019-04-16T21:25:50.995Z,1.00
2019-04-16T21:28:37.918Z,1.00
2019-04-16T21:31:14.513Z,1.00
2019-04-16T21:34:02.481Z,75.40
2019-04-16T21:36:43.745Z,99.90
2019-04-16T21:39:21.702Z,99.90
2019-04-16T21:41:52.127Z,99.90
2019-04-16T21:44:22.609Z,99.90
2019-04-16T21:46:56.946Z,99.90
2019-04-16T21:49:37.775Z,99.90
2019-04-16T21:52:09.481Z,99.90
2019-04-16T21:54:40.041Z,1.00
2019-04-16T21:57:13.346Z,1.00
2019-04-16T21:59:42.797Z,1.00
2019-04-16T22:02:31.271Z,1.00
2019-04-16T22:05:01.800Z,1.00
2019-04-16T22:07:32.213Z,1.00
2019-04-16T22:10:02.619Z,99.90
2019-04-16T22:12:33.030Z,1.00
2019-04-16T22:15:05.133Z,99.90
2019-04-16T22:17:36.667Z,99.90
2019-04-16T22:20:07.710Z,1.00
2019-04-16T22:22:38.118Z,1.00
2019-04-16T22:25:08.504Z,1.00
2019-04-16T22:27:39.644Z,76.10
2019-04-16T22:30:11.158Z,1.00
2019-04-16T22:32:41.536Z,1.00
2019-04-16T22:35:12.030Z,1.00
2019-04-16T22:37:42.520Z,1.00
2019-04-16T22:40:30.497Z,1.00
2019-04-16T22:43:18.783Z,99.90
2019-04-16T22:45:54.469Z,1.00
2019-04-16T22:48:24.870Z,1.00
2019-04-16T22:50:55.273Z,1.00
2019-04-16T22:53:25.683Z,1.00
2019-04-16T22:55:57.642Z,1.00
2019-04-16T22:58:47.074Z,64.50
2019-04-16T23:01:18.409Z,99.90
2019-04-16T23:03:49.731Z,99.90
2019-04-16T23:06:21.052Z,94.90
2019-04-16T23:08:51.455Z,99.90
2019-04-16T23:11:23.760Z,35.20
2019-04-16T23:13:54.112Z,1.00
2019-04-16T23:16:24.501Z,99.90
2019-04-16T23:18:54.896Z,99.90
2019-04-16T23:21:25.320Z,99.90
2019-04-16T23:23:55.719Z,99.90
2019-04-16T23:26:26.115Z,99.90
2019-04-16T23:28:56.495Z,99.90
2019-04-16T23:31:26.910Z,99.90
2019-04-16T23:33:57.481Z,99.90
2019-04-16T23:36:27.994Z,99.90
2019-04-16T23:39:03.328Z,99.90
2019-04-16T23:41:30.548Z,99.90
2019-04-16T23:44:18.504Z,99.90
2019-04-16T23:47:10.211Z,97.30
2019-04-16T23:49:45.008Z,1.00
2019-04-16T23:52:20.906Z,99.90
2019-04-16T23:54:57.206Z,41.00
2019-04-16T23:57:36.235Z,99.90
